Terminal Aerodrome Forecast
Issued by NWS

Home | Current Version | Previous Version | Text Only | Print | Product List | Glossary On
Versions: 1 2 3 4 5 6 7 8 9 10 11 12 13 14 15 16 17 18 19 20 21
000
FTUS41 KPBZ 070500
TAFDUJ
TAF
KDUJ 070524Z 0706/0806 22008G16KT P6SM SCT100
     FM071300 21010G20KT P6SM BKN025
     FM071600 22008G16KT 4SM -SHSN OVC008
     FM080000 24008KT P6SM OVC015=

USA.gov is the U.S. government's official web portal to all federal, state and local government web resources and services.